createdAt,value
2023-04-22T04:32:45.562Z,9.10
2023-04-22T04:35:15.217Z,9.20
2023-04-22T04:37:44.906Z,9.10
2023-04-22T04:40:14.760Z,9.10
2023-04-22T04:42:42.290Z,9.10
2023-04-22T04:45:09.260Z,9.10
2023-04-22T04:47:35.951Z,9.10
2023-04-22T04:50:04.367Z,9.10
2023-04-22T04:52:32.047Z,9.00
2023-04-22T04:54:58.658Z,8.90
2023-04-22T04:57:25.302Z,8.90
2023-04-22T04:59:52.058Z,9.00
2023-04-22T05:02:18.772Z,9.10
2023-04-22T05:04:45.701Z,9.10
2023-04-22T05:07:12.556Z,9.20
2023-04-22T05:09:39.405Z,9.20
2023-04-22T05:12:06.452Z,9.20
2023-04-22T05:14:33.094Z,9.30
2023-04-22T05:16:59.901Z,9.20
2023-04-22T05:19:26.541Z,9.30
2023-04-22T05:21:53.140Z,9.30
2023-04-22T05:24:19.772Z,9.50
2023-04-22T05:26:46.459Z,9.50
2023-04-22T05:29:13.126Z,9.50
2023-04-22T05:31:39.812Z,9.60
2023-04-22T05:34:06.450Z,9.60
2023-04-22T05:36:33.116Z,9.50
2023-04-22T05:38:59.816Z,9.50
2023-04-22T05:41:26.672Z,9.30
2023-04-22T05:43:53.437Z,9.40
2023-04-22T05:46:20.134Z,9.60
2023-04-22T05:48:48.648Z,9.60
2023-04-22T05:51:15.618Z,9.70
2023-04-22T05:53:42.246Z,9.90
2023-04-22T05:56:08.889Z,10.10
2023-04-22T05:58:35.623Z,10.20
2023-04-22T06:01:02.355Z,10.30
2023-04-22T06:03:29.260Z,10.30
2023-04-22T06:05:56.211Z,10.40
2023-04-22T06:08:22.994Z,10.40
2023-04-22T06:10:50.353Z,10.50
2023-04-22T06:13:17.309Z,10.60
2023-04-22T06:15:44.052Z,10.60
2023-04-22T06:18:10.764Z,10.60
2023-04-22T06:20:37.419Z,10.60
2023-04-22T06:23:05.318Z,10.60
2023-04-22T06:25:32.976Z,10.70
2023-04-22T06:27:59.915Z,10.80
2023-04-22T06:30:27.696Z,10.90
2023-04-22T06:32:55.186Z,11.10
2023-04-22T06:35:22.015Z,11.20
2023-04-22T06:37:48.755Z,11.40
2023-04-22T06:40:15.530Z,11.50
2023-04-22T06:42:42.109Z,11.60
2023-04-22T06:45:12.468Z,11.70
2023-04-22T06:47:42.158Z,11.80
2023-04-22T06:50:09.548Z,11.90
2023-04-22T06:52:36.555Z,11.90
2023-04-22T06:55:03.905Z,12.00
2023-04-22T06:57:31.119Z,12.10
2023-04-22T06:59:57.809Z,12.10
2023-04-22T07:02:24.490Z,12.30
2023-04-22T07:04:51.200Z,12.40
2023-04-22T07:07:18.346Z,12.60
2023-04-22T07:09:44.997Z,12.80
2023-04-22T07:12:11.686Z,13.00
2023-04-22T07:14:42.280Z,13.20
2023-04-22T07:17:08.908Z,13.30
2023-04-22T07:19:35.595Z,13.50
2023-04-22T07:22:03.322Z,13.70
2023-04-22T07:24:30.816Z,13.70
2023-04-22T07:26:57.750Z,13.80
2023-04-22T07:29:24.645Z,13.70
2023-04-22T07:31:51.264Z,14.00
2023-04-22T07:34:18.619Z,14.10
2023-04-22T07:36:45.433Z,14.40
2023-04-22T07:39:12.118Z,14.70
2023-04-22T07:41:38.737Z,14.70
2023-04-22T07:44:05.482Z,14.80
2023-04-22T07:46:32.099Z,14.90
2023-04-22T07:48:58.690Z,15.00
2023-04-22T07:51:25.988Z,15.10
2023-04-22T07:53:52.655Z,15.40
2023-04-22T07:56:19.377Z,15.60
2023-04-22T07:58:46.037Z,16.00
2023-04-22T08:01:12.713Z,16.40
2023-04-22T08:03:39.553Z,16.60
2023-04-22T08:06:06.477Z,16.90
2023-04-22T08:08:33.148Z,17.20
2023-04-22T08:10:59.942Z,17.60
2023-04-22T08:13:26.576Z,17.70
2023-04-22T08:15:53.357Z,18.00
2023-04-22T08:18:20.606Z,18.30
2023-04-22T08:20:47.793Z,18.20
2023-04-22T08:23:14.678Z,17.90
2023-04-22T08:25:41.730Z,18.00
2023-04-22T08:28:08.552Z,17.90
2023-04-22T08:30:35.304Z,18.00
2023-04-22T08:33:03.291Z,18.30
2023-04-22T08:35:30.355Z,18.20
2023-04-22T08:37:56.982Z,18.50
2023-04-22T08:40:23.599Z,19.40
2023-04-22T08:42:52.150Z,20.30
2023-04-22T08:45:18.962Z,20.70
2023-04-22T08:47:46.398Z,21.70
2023-04-22T08:50:13.665Z,22.80
2023-04-22T08:52:42.671Z,23.70
2023-04-22T08:55:09.434Z,24.50
2023-04-22T08:57:38.325Z,25.10
2023-04-22T09:00:06.267Z,25.30
2023-04-22T09:02:33.430Z,24.70
2023-04-22T09:05:02.131Z,24.80
2023-04-22T09:07:31.051Z,24.70
2023-04-22T09:09:58.833Z,23.80
2023-04-22T09:12:25.963Z,23.20
2023-04-22T09:14:54.398Z,23.50
2023-04-22T09:17:34.567Z,23.10
2023-04-22T09:20:02.876Z,23.10
2023-04-22T09:22:44.739Z,23.40
2023-04-22T09:25:25.938Z,23.30
2023-04-22T09:27:57.837Z,23.30
2023-04-22T09:30:33.400Z,23.90
2023-04-22T09:33:04.915Z,24.20
2023-04-22T09:35:41.691Z,23.40
2023-04-22T09:38:10.407Z,23.90
2023-04-22T09:40:38.729Z,24.70
2023-04-22T09:43:08.501Z,25.10
2023-04-22T09:45:42.923Z,25.80
2023-04-22T09:48:14.955Z,26.40
2023-04-22T09:50:48.811Z,26.10
2023-04-22T09:53:18.324Z,26.80
2023-04-22T09:55:47.556Z,27.20
2023-04-22T09:58:19.097Z,26.20
2023-04-22T10:00:54.640Z,25.90
2023-04-22T10:03:21.496Z,24.10
2023-04-22T10:05:48.472Z,23.20
2023-04-22T10:08:16.600Z,23.10
2023-04-22T10:10:44.923Z,23.50
2023-04-22T10:13:12.173Z,24.30
2023-04-22T10:15:56.438Z,25.40
2023-04-22T10:18:25.971Z,26.20
2023-04-22T10:20:54.557Z,26.30
2023-04-22T10:23:24.073Z,26.20
2023-04-22T10:25:54.317Z,26.20
2023-04-22T10:28:22.382Z,25.90
2023-04-22T10:30:49.617Z,26.00
2023-04-22T10:33:27.308Z,25.90
2023-04-22T10:36:10.140Z,25.30
2023-04-22T10:38:50.325Z,24.90
2023-04-22T10:41:22.251Z,24.70
2023-04-22T10:43:58.395Z,25.20
2023-04-22T10:46:51.055Z,25.90
2023-04-22T10:49:22.378Z,25.80
2023-04-22T10:51:49.979Z,26.30
2023-04-22T10:54:31.403Z,26.60
2023-04-22T10:57:07.739Z,26.90
2023-04-22T10:59:41.925Z,27.30
2023-04-22T11:02:11.644Z,27.70
2023-04-22T11:04:39.444Z,28.10
2023-04-22T11:07:20.383Z,28.50
2023-04-22T11:09:50.860Z,28.80
2023-04-22T11:12:38.486Z,28.10
2023-04-22T11:15:16.645Z,28.00
2023-04-22T11:17:45.820Z,28.00
2023-04-22T11:20:17.338Z,28.10
2023-04-22T11:22:46.673Z,28.00
2023-04-22T11:25:14.451Z,27.90
2023-04-22T11:27:43.574Z,28.40
2023-04-22T11:30:15.690Z,28.60
2023-04-22T11:32:47.518Z,28.60
2023-04-22T11:35:26.876Z,29.60
2023-04-22T11:38:01.821Z,30.00
2023-04-22T11:40:32.250Z,29.40
2023-04-22T11:43:02.166Z,29.40
2023-04-22T11:45:31.415Z,28.90
2023-04-22T11:47:58.531Z,28.30
2023-04-22T11:50:31.040Z,27.90
2023-04-22T11:53:01.063Z,27.90
2023-04-22T11:55:30.114Z,27.90
2023-04-22T11:58:00.855Z,27.80
2023-04-22T12:00:34.089Z,27.10
2023-04-22T12:03:01.874Z,26.40
2023-04-22T12:05:40.191Z,25.90
2023-04-22T12:08:17.501Z,25.10
2023-04-22T12:10:56.066Z,25.10
2023-04-22T12:13:29.717Z,24.90
2023-04-22T12:16:05.359Z,24.50
2023-04-22T12:18:37.200Z,23.80
2023-04-22T12:21:14.838Z,23.60
2023-04-22T12:23:50.453Z,23.80
2023-04-22T12:26:19.125Z,23.90
2023-04-22T12:28:46.523Z,23.80
2023-04-22T12:31:17.012Z,23.50
2023-04-22T12:33:44.926Z,23.70
2023-04-22T12:36:11.615Z,24.20
2023-04-22T12:38:38.883Z,24.10
2023-04-22T12:41:06.701Z,23.70
2023-04-22T12:43:36.349Z,23.80
2023-04-22T12:46:04.022Z,23.50
2023-04-22T12:48:31.099Z,23.20
2023-04-22T12:50:58.505Z,23.30
2023-04-22T12:53:27.861Z,23.50
2023-04-22T12:55:55.416Z,23.00
2023-04-22T12:58:22.109Z,22.80
2023-04-22T13:00:48.720Z,22.30
2023-04-22T13:03:15.889Z,22.30
2023-04-22T13:05:42.692Z,22.20
2023-04-22T13:08:09.301Z,22.00
2023-04-22T13:10:36.049Z,22.40
2023-04-22T13:13:17.088Z,22.50
2023-04-22T13:15:46.991Z,22.30
2023-04-22T13:18:14.532Z,22.30
2023-04-22T13:20:42.308Z,22.50
2023-04-22T13:23:09.707Z,22.00
2023-04-22T13:25:36.646Z,22.00
2023-04-22T13:28:03.318Z,21.90
2023-04-22T13:30:30.007Z,22.20
2023-04-22T13:32:56.801Z,22.40
2023-04-22T13:35:24.246Z,23.00
2023-04-22T13:37:51.102Z,23.40
2023-04-22T13:40:17.759Z,23.30
2023-04-22T13:42:44.508Z,23.70
2023-04-22T13:45:11.352Z,23.80
2023-04-22T13:47:38.052Z,23.80
2023-04-22T13:50:06.336Z,23.90
2023-04-22T13:52:33.803Z,23.90
2023-04-22T13:55:00.428Z,23.30
2023-04-22T13:57:27.427Z,23.50
2023-04-22T13:59:54.059Z,23.50
2023-04-22T14:02:20.854Z,23.50
2023-04-22T14:04:47.599Z,23.80
2023-04-22T14:07:14.730Z,23.80
2023-04-22T14:09:41.703Z,23.60
2023-04-22T14:12:11.191Z,23.80
2023-04-22T14:14:37.896Z,23.70
2023-04-22T14:17:04.603Z,23.50
2023-04-22T14:19:31.733Z,23.60
2023-04-22T14:21:58.401Z,23.20
2023-04-22T14:24:25.603Z,22.90
2023-04-22T14:26:52.802Z,23.10
2023-04-22T14:29:20.178Z,23.10
2023-04-22T14:31:47.238Z,23.20
2023-04-22T14:34:13.903Z,22.80
2023-04-22T14:36:40.687Z,22.60
2023-04-22T14:39:07.560Z,22.50
2023-04-22T14:41:34.519Z,22.80
2023-04-22T14:44:01.163Z,22.70
2023-04-22T14:46:27.868Z,22.40
2023-04-22T14:48:54.481Z,22.30
2023-04-22T14:51:21.127Z,22.50
2023-04-22T14:53:47.825Z,22.20
2023-04-22T14:56:14.431Z,21.90
2023-04-22T14:58:41.092Z,21.80
2023-04-22T15:01:07.810Z,21.50
2023-04-22T15:03:35.827Z,21.10
2023-04-22T15:06:02.824Z,20.80
2023-04-22T15:08:29.585Z,20.70
2023-04-22T15:10:56.927Z,20.50
2023-04-22T15:13:23.653Z,20.60
2023-04-22T15:15:50.422Z,20.50
2023-04-22T15:18:17.164Z,20.50
2023-04-22T15:20:43.905Z,20.40
2023-04-22T15:23:10.819Z,20.20
2023-04-22T15:25:38.256Z,20.20
2023-04-22T15:28:04.994Z,20.20
2023-04-22T15:30:31.666Z,20.10
2023-04-22T15:32:58.340Z,19.80
2023-04-22T15:35:25.249Z,19.70
2023-04-22T15:37:52.718Z,19.70
2023-04-22T15:40:19.497Z,19.80
2023-04-22T15:42:46.178Z,19.70
2023-04-22T15:45:12.868Z,19.70
2023-04-22T15:47:41.211Z,19.80
2023-04-22T15:50:09.647Z,19.80
2023-04-22T15:52:37.657Z,19.80
2023-04-22T15:55:06.081Z,19.90
2023-04-22T15:57:35.033Z,19.90
2023-04-22T16:00:13.074Z,19.60
2023-04-22T16:02:41.587Z,19.60
2023-04-22T16:05:08.609Z,19.60
2023-04-22T16:07:35.410Z,19.70
2023-04-22T16:10:02.592Z,19.70
2023-04-22T16:12:30.167Z,19.40
2023-04-22T16:14:58.075Z,19.20
2023-04-22T16:17:25.078Z,19.20
2023-04-22T16:19:51.775Z,19.00
2023-04-22T16:22:18.650Z,18.80
2023-04-22T16:24:45.275Z,18.80
2023-04-22T16:27:16.135Z,18.80
2023-04-22T16:29:43.307Z,18.70
2023-04-22T16:32:10.455Z,18.50
2023-04-22T16:34:38.365Z,18.40
2023-04-22T16:37:05.897Z,18.40
2023-04-22T16:39:32.785Z,18.40
2023-04-22T16:42:00.032Z,18.40
2023-04-22T16:44:26.612Z,18.50
2023-04-22T16:46:53.252Z,18.60
2023-04-22T16:49:20.097Z,18.60
2023-04-22T16:51:46.798Z,18.60
2023-04-22T16:54:13.568Z,18.50
2023-04-22T16:56:40.352Z,18.60
2023-04-22T16:59:06.981Z,18.50
2023-04-22T17:01:33.815Z,18.60
2023-04-22T17:04:01.594Z,18.70
2023-04-22T17:06:28.464Z,18.60
2023-04-22T17:08:55.173Z,18.40
2023-04-22T17:11:22.865Z,18.30
2023-04-22T17:13:49.510Z,18.20
2023-04-22T17:16:16.163Z,18.30
2023-04-22T17:18:43.024Z,18.20
2023-04-22T17:21:10.132Z,18.10
2023-04-22T17:23:36.917Z,18.20
2023-04-22T17:26:03.568Z,18.20
2023-04-22T17:28:30.236Z,18.20
2023-04-22T17:30:57.006Z,18.10
2023-04-22T17:33:23.628Z,17.80
2023-04-22T17:35:50.330Z,17.60
2023-04-22T17:38:17.013Z,17.60
2023-04-22T17:40:43.794Z,17.70
2023-04-22T17:43:10.678Z,17.70
2023-04-22T17:45:37.453Z,17.70
2023-04-22T17:48:04.209Z,17.80
2023-04-22T17:50:31.293Z,17.60
2023-04-22T17:52:58.176Z,17.60
2023-04-22T17:55:24.882Z,17.70
2023-04-22T17:57:51.509Z,17.70
2023-04-22T18:00:18.776Z,17.60
2023-04-22T18:02:45.669Z,17.50
2023-04-22T18:05:12.536Z,17.50
2023-04-22T18:07:39.544Z,17.60
2023-04-22T18:10:07.421Z,17.80
2023-04-22T18:12:34.116Z,17.80
2023-04-22T18:15:01.057Z,17.80
2023-04-22T18:17:27.739Z,17.80
2023-04-22T18:20:02.860Z,17.70
2023-04-22T18:22:36.876Z,17.70
2023-04-22T18:25:03.620Z,17.70
2023-04-22T18:27:30.294Z,17.60
2023-04-22T18:29:56.926Z,17.40
2023-04-22T18:32:23.661Z,17.50
2023-04-22T18:34:50.656Z,17.60
2023-04-22T18:37:17.326Z,17.60
2023-04-22T18:39:43.973Z,17.50
2023-04-22T18:42:10.851Z,17.30
2023-04-22T18:44:37.676Z,17.00
2023-04-22T18:47:04.970Z,17.00
2023-04-22T18:49:33.759Z,16.90
2023-04-22T18:52:01.038Z,16.80
2023-04-22T18:54:30.059Z,16.50
2023-04-22T18:56:58.170Z,16.40
2023-04-22T18:59:24.939Z,16.30
2023-04-22T19:01:51.817Z,16.00
2023-04-22T19:04:18.673Z,15.90
2023-04-22T19:06:45.564Z,15.80
2023-04-22T19:09:12.322Z,15.70
2023-04-22T19:11:39.128Z,15.60
2023-04-22T19:14:05.810Z,15.50
2023-04-22T19:16:32.557Z,15.50
2023-04-22T19:18:59.154Z,15.80
2023-04-22T19:21:26.984Z,16.10
2023-04-22T19:23:53.850Z,16.40
2023-04-22T19:26:21.855Z,16.60
2023-04-22T19:28:48.991Z,16.70
2023-04-22T19:31:19.617Z,16.60
2023-04-22T19:33:46.388Z,16.50
2023-04-22T19:36:13.120Z,16.60
2023-04-22T19:38:39.814Z,16.20
2023-04-22T19:41:08.833Z,16.20
2023-04-22T19:43:37.237Z,16.30
2023-04-22T19:46:04.696Z,16.50
2023-04-22T19:48:31.939Z,16.50
2023-04-22T19:50:58.994Z,16.60
2023-04-22T19:53:28.775Z,16.50
2023-04-22T19:55:55.491Z,16.60
2023-04-22T19:58:22.590Z,16.50
2023-04-22T20:00:49.560Z,16.60
2023-04-22T20:03:16.536Z,16.60
2023-04-22T20:05:44.220Z,16.50
2023-04-22T20:08:13.485Z,16.50
2023-04-22T20:10:40.961Z,16.40
2023-04-22T20:13:08.319Z,16.40
2023-04-22T20:15:35.084Z,16.20
2023-04-22T20:18:01.921Z,16.10
2023-04-22T20:20:28.840Z,16.20
2023-04-22T20:23:00.519Z,16.20
2023-04-22T20:25:28.713Z,16.00
2023-04-22T20:27:56.142Z,16.20
2023-04-22T20:30:22.935Z,16.30
2023-04-22T20:32:49.783Z,16.30
2023-04-22T20:35:16.775Z,16.40
2023-04-22T20:37:46.140Z,16.50
2023-04-22T20:40:14.967Z,16.60
2023-04-22T20:42:41.735Z,16.60
2023-04-22T20:45:09.619Z,16.60
2023-04-22T20:47:36.292Z,16.50
2023-04-22T20:50:04.241Z,16.40
2023-04-22T20:52:31.090Z,16.20
2023-04-22T20:54:58.462Z,16.20
2023-04-22T20:57:25.137Z,16.20
2023-04-22T20:59:51.820Z,16.30
2023-04-22T21:02:19.881Z,16.30
2023-04-22T21:04:46.830Z,16.30
2023-04-22T21:07:14.492Z,16.20
2023-04-22T21:09:41.688Z,16.20
2023-04-22T21:12:10.608Z,16.20
2023-04-22T21:14:41.684Z,16.00
2023-04-22T21:17:18.426Z,16.00
2023-04-22T21:19:49.416Z,16.00
2023-04-22T21:22:22.028Z,15.90
2023-04-22T21:24:49.599Z,16.00
2023-04-22T21:27:21.145Z,15.90
2023-04-22T21:29:49.300Z,15.80
2023-04-22T21:32:17.253Z,15.70
2023-04-22T21:34:44.985Z,15.60
2023-04-22T21:37:12.305Z,15.50
2023-04-22T21:39:40.359Z,15.60
2023-04-22T21:42:10.482Z,15.60
2023-04-22T21:44:38.230Z,15.50
2023-04-22T21:47:05.840Z,15.50
2023-04-22T21:49:32.675Z,15.40
2023-04-22T21:51:59.681Z,15.20
2023-04-22T21:54:26.481Z,15.00
2023-04-22T21:56:53.226Z,15.00
2023-04-22T21:59:20.066Z,15.10
2023-04-22T22:01:46.793Z,15.30
2023-04-22T22:04:15.962Z,15.30
2023-04-22T22:06:43.798Z,15.40
2023-04-22T22:09:11.449Z,15.40
2023-04-22T22:11:38.135Z,15.40
2023-04-22T22:14:04.977Z,15.40
2023-04-22T22:16:31.779Z,15.40
2023-04-22T22:18:58.539Z,15.30
2023-04-22T22:21:25.201Z,15.40
2023-04-22T22:23:52.061Z,15.30
2023-04-22T22:26:19.235Z,15.30
2023-04-22T22:28:46.086Z,15.20
2023-04-22T22:31:12.739Z,15.30
2023-04-22T22:33:39.334Z,15.30
2023-04-22T22:36:06.180Z,15.40
2023-04-22T22:38:32.969Z,15.30
2023-04-22T22:40:59.663Z,15.00
2023-04-22T22:43:26.838Z,14.90
2023-04-22T22:45:53.698Z,15.00
2023-04-22T22:48:20.406Z,14.90
2023-04-22T22:50:47.105Z,15.00
2023-04-22T22:53:13.785Z,15.00
2023-04-22T22:55:40.459Z,15.10
2023-04-22T22:58:07.132Z,15.00
2023-04-22T23:00:33.779Z,14.80
2023-04-22T23:03:00.998Z,14.90
2023-04-22T23:05:27.923Z,14.90
2023-04-22T23:07:54.519Z,15.00
2023-04-22T23:10:21.562Z,14.90
2023-04-22T23:12:48.221Z,15.00
2023-04-22T23:15:14.871Z,15.10
2023-04-22T23:17:41.558Z,15.10
2023-04-22T23:20:12.039Z,15.20
2023-04-22T23:22:40.524Z,15.10
2023-04-22T23:25:08.433Z,14.80
2023-04-22T23:27:35.964Z,14.60
2023-04-22T23:30:04.497Z,14.30
